Time;durP1;ratioP1;P1;durP2;ratioP2;P2;SDS_P1;SDS_P2;PMS_P1;PMS_P2;Temp;Humidity;BMP_temperature;BMP_pressure;BME280_temperature;BME280_humidity;BME280_pressure;Samples;Min_cycle;Max_cycle;Signal;HPM_P1;HPM_P2
2021/07/18 00:00:19;;;;;;;27.40;17.83;;;;;;;16.85;100.00;102518.38;3604050;39;20046;-63
2021/07/18 00:02:46;;;;;;;25.08;17.40;;;;;;;16.84;100.00;102514.78;3606642;39;20035;-63
2021/07/18 00:05:12;;;;;;;23.10;17.10;;;;;;;16.84;100.00;102511.22;3604886;39;20030;-63
2021/07/18 00:07:40;;;;;;;20.63;14.68;;;;;;;16.92;100.00;102506.00;3606995;39;20034;-62
2021/07/18 00:10:07;;;;;;;17.42;13.93;;;;;;;16.87;100.00;102510.94;3606193;39;20641;-63
2021/07/18 00:12:34;;;;;;;18.45;11.60;;;;;;;16.74;100.00;102517.47;3604365;39;20055;-63
2021/07/18 00:15:00;;;;;;;26.65;12.00;;;;;;;16.75;100.00;102511.03;3605224;39;20031;-63
2021/07/18 00:17:27;;;;;;;14.18;10.18;;;;;;;16.71;100.00;102506.88;3606026;39;20060;-63
2021/07/18 00:19:53;;;;;;;13.18;9.50;;;;;;;16.66;100.00;102509.13;3606247;39;20046;-63
2021/07/18 00:22:20;;;;;;;14.40;9.57;;;;;;;16.66;100.00;102509.13;3604519;39;20322;-63
2021/07/18 00:24:48;;;;;;;12.60;8.05;;;;;;;16.66;100.00;102500.97;3605136;39;20043;-63
2021/07/18 00:27:14;;;;;;;10.88;7.80;;;;;;;16.67;100.00;102491.84;3607326;39;20359;-63
2021/07/18 00:29:43;;;;;;;12.98;7.72;;;;;;;16.69;100.00;102487.09;3605510;39;20039;-63
2021/07/18 00:32:10;;;;;;;12.75;7.07;;;;;;;16.73;100.00;102488.56;3606172;39;20032;-63
2021/07/18 00:34:37;;;;;;;13.95;7.07;;;;;;;16.68;100.00;102488.13;3605562;39;20076;-63
2021/07/18 00:37:03;;;;;;;8.00;6.18;;;;;;;16.72;100.00;102483.25;3605037;39;20039;-62
2021/07/18 00:39:30;;;;;;;12.20;6.70;;;;;;;16.71;100.00;102489.69;3604470;39;20036;-63
2021/07/18 00:41:57;;;;;;;10.73;7.00;;;;;;;16.75;100.00;102486.56;3605344;39;20340;-62
2021/07/18 00:44:24;;;;;;;11.43;6.88;;;;;;;16.70;100.00;102486.13;3607002;39;20413;-62
2021/07/18 00:46:50;;;;;;;8.32;6.22;;;;;;;16.75;100.00;102481.13;3606515;39;20047;-62
2021/07/18 00:49:18;;;;;;;10.32;6.30;;;;;;;16.75;100.00;102483.84;3606000;39;20031;-63
2021/07/18 00:51:44;;;;;;;10.60;6.20;;;;;;;16.76;100.00;102471.13;3606705;39;20047;-63
2021/07/18 00:54:11;;;;;;;8.93;6.40;;;;;;;16.80;100.00;102478.84;3605507;39;20282;-62
2021/07/18 00:59:07;;;;;;;12.82;6.90;;;;;;;16.67;100.00;102478.25;3617710;22;20039;-63
2021/07/18 01:01:34;;;;;;;11.30;6.70;;;;;;;16.67;100.00;102483.69;3604164;39;20361;-62
2021/07/18 01:04:00;;;;;;;10.10;6.05;;;;;;;16.64;100.00;102478.50;3604563;39;20024;-62
2021/07/18 01:06:27;;;;;;;14.80;7.03;;;;;;;16.60;100.00;102485.22;3606048;39;20048;-63
2021/07/18 01:08:53;;;;;;;11.68;6.78;;;;;;;16.59;100.00;102480.75;3606684;39;20034;-63
2021/07/18 01:11:20;;;;;;;9.20;6.68;;;;;;;16.60;100.00;102471.63;3607047;39;20028;-63
2021/07/18 01:13:47;;;;;;;18.63;7.75;;;;;;;16.50;100.00;102470.72;3606054;39;20117;-62
2021/07/18 01:16:15;;;;;;;11.35;6.40;;;;;;;16.51;100.00;102464.28;3606681;39;20038;-62
2021/07/18 01:18:42;;;;;;;12.20;7.18;;;;;;;16.48;100.00;102464.56;3604926;39;20028;-62
2021/07/18 01:21:11;;;;;;;14.18;8.27;;;;;;;16.44;100.00;102464.84;3607026;39;20030;-63
2021/07/18 01:23:40;;;;;;;9.90;6.40;;;;;;;16.45;100.00;102463.81;3606605;39;20042;-63
2021/07/18 01:26:06;;;;;;;14.88;9.07;;;;;;;16.42;100.00;102469.53;3606484;39;20047;-63
2021/07/18 01:28:33;;;;;;;11.05;7.78;;;;;;;16.45;100.00;102469.25;3605296;39;20065;-63
2021/07/18 01:31:00;;;;;;;13.40;8.70;;;;;;;16.47;100.00;102463.69;3605567;39;20048;-63
2021/07/18 01:33:26;;;;;;;14.40;8.07;;;;;;;16.36;100.00;102461.94;3606119;39;20032;-62
2021/07/18 01:35:53;;;;;;;15.73;9.02;;;;;;;16.38;100.00;102465.34;3605540;39;20038;-63
2021/07/18 01:38:19;;;;;;;15.23;9.05;;;;;;;16.36;100.00;102453.78;3606443;39;20042;-63
2021/07/18 01:40:47;;;;;;;13.43;8.02;;;;;;;16.38;100.00;102461.78;3605647;39;20048;-62
2021/07/18 01:43:14;;;;;;;11.98;8.23;;;;;;;16.43;100.00;102459.50;3606559;39;20382;-63
2021/07/18 01:45:40;;;;;;;15.98;8.95;;;;;;;16.31;100.00;102463.31;3605706;39;20038;-63
2021/07/18 01:48:07;;;;;;;13.98;9.52;;;;;;;16.25;100.00;102453.84;3606185;39;20052;-62
2021/07/18 01:50:34;;;;;;;14.68;8.48;;;;;;;16.24;100.00;102460.31;3608113;39;20035;-62
2021/07/18 01:53:02;;;;;;;13.70;8.75;;;;;;;16.28;100.00;102467.16;3608003;39;20046;-62
2021/07/18 01:55:29;;;;;;;15.20;8.23;;;;;;;16.32;100.00;102460.47;3607997;39;20063;-63
2021/07/18 01:57:58;;;;;;;15.27;8.68;;;;;;;16.29;100.00;102460.75;3607715;39;20299;-63
2021/07/18 02:02:54;;;;;;;13.55;8.50;;;;;;;16.21;100.00;102460.53;3633978;22;20201;-62
2021/07/18 02:05:21;;;;;;;13.68;8.75;;;;;;;16.19;100.00;102462.53;3597145;39;20036;-62
2021/07/18 02:07:49;;;;;;;14.90;7.97;;;;;;;16.14;100.00;102464.81;3598029;39;20048;-62
2021/07/18 02:10:17;;;;;;;13.93;8.48;;;;;;;16.11;100.00;102468.66;3597115;40;20032;-63
2021/07/18 02:12:44;;;;;;;13.13;8.43;;;;;;;16.09;100.00;102463.34;3598298;40;20044;-62
2021/07/18 02:15:16;;;;;;;16.60;8.23;;;;;;;16.16;100.00;102468.25;3598184;39;20051;-63
2021/07/18 02:17:43;;;;;;;10.80;7.18;;;;;;;16.16;100.00;102468.25;3597940;40;20040;-62
2021/07/18 02:20:11;;;;;;;13.23;7.75;;;;;;;16.11;100.00;102461.34;3596631;39;20044;-62
2021/07/18 02:22:43;;;;;;;13.90;8.13;;;;;;;16.15;100.00;102467.41;3598518;40;20038;-62
2021/07/18 02:25:11;;;;;;;14.57;8.90;;;;;;;16.17;100.00;102464.53;3597905;40;20038;-62
2021/07/18 02:27:38;;;;;;;14.57;8.32;;;;;;;16.15;100.00;102461.09;3598579;40;20032;-62
2021/07/18 02:30:07;;;;;;;16.70;8.73;;;;;;;16.15;100.00;102461.09;3597451;39;20048;-62
2021/07/18 02:32:35;;;;;;;10.20;7.63;;;;;;;16.03;100.00;102454.84;3594678;40;20044;-62
2021/07/18 02:38:18;;;;;;;11.43;7.68;;;;;;;16.00;100.00;102458.69;3626920;22;20044;-62
2021/07/18 02:40:44;;;;;;;12.75;8.50;;;;;;;15.97;100.00;102453.53;3604205;39;20235;-62
2021/07/18 02:43:11;;;;;;;15.13;8.75;;;;;;;15.99;100.00;102453.41;3604815;39;20413;-63
2021/07/18 02:45:37;;;;;;;10.18;6.93;;;;;;;15.91;100.00;102451.34;3607480;39;20035;-62
2021/07/18 02:48:06;;;;;;;11.52;7.57;;;;;;;15.94;100.00;102446.53;3603055;39;20039;-62
2021/07/18 02:50:32;;;;;;;12.93;8.43;;;;;;;15.90;100.00;102446.91;3606012;39;20031;-62
2021/07/18 02:52:59;;;;;;;13.18;8.48;;;;;;;15.93;100.00;102442.09;3605313;39;20031;-62
2021/07/18 02:55:25;;;;;;;18.83;9.90;;;;;;;15.96;100.00;102449.13;3604006;39;20301;-62
2021/07/18 02:57:52;;;;;;;12.25;7.97;;;;;;;15.96;100.00;102440.97;3604628;39;20071;-62
2021/07/18 03:00:20;;;;;;;18.52;10.05;;;;;;;15.90;100.00;102445.06;3606387;39;20111;-62
2021/07/18 03:02:47;;;;;;;14.45;9.50;;;;;;;15.89;100.00;102446.06;3607740;39;20036;-62
2021/07/18 03:05:15;;;;;;;16.90;9.45;;;;;;;15.86;100.00;102440.88;3602014;39;20061;-62
2021/07/18 03:07:43;;;;;;;17.53;10.53;;;;;;;15.91;100.00;102443.22;3605296;39;20313;-62
2021/07/18 03:10:11;;;;;;;18.90;10.77;;;;;;;15.92;100.00;102439.50;3606114;39;20036;-62
2021/07/18 03:15:11;;;;;;;15.68;9.05;;;;;;;15.83;100.00;102434.88;3658035;22;20079;-62
2021/07/18 03:17:38;;;;;;;14.98;9.38;;;;;;;15.85;100.00;102438.31;3607210;39;20076;-62
2021/07/18 03:20:07;;;;;;;15.07;9.73;;;;;;;15.92;100.00;102434.06;3608012;39;20357;-62
2021/07/18 03:22:35;;;;;;;13.38;8.77;;;;;;;15.88;100.00;102428.03;3607508;39;20039;-62
2021/07/18 03:25:04;;;;;;;15.90;9.85;;;;;;;15.95;100.00;102425.66;3607718;39;20034;-62
2021/07/18 03:27:30;;;;;;;15.02;9.25;;;;;;;15.91;100.00;102426.91;3607723;39;20038;-62
2021/07/18 03:29:57;;;;;;;13.15;9.13;;;;;;;16.00;100.00;102431.53;3607713;39;20041;-62
2021/07/18 03:32:23;;;;;;;14.95;9.27;;;;;;;16.02;100.00;102425.97;3606875;39;20048;-62
2021/07/18 03:34:50;;;;;;;13.52;8.50;;;;;;;15.98;100.00;102425.38;3605977;39;20038;-63
2021/07/18 03:37:16;;;;;;;17.73;9.57;;;;;;;16.00;100.00;102426.09;3607657;39;20040;-62
2021/07/18 03:39:44;;;;;;;16.52;10.43;;;;;;;15.95;100.00;102422.94;3603154;39;20042;-62
2021/07/18 03:42:11;;;;;;;15.70;9.25;;;;;;;16.00;100.00;102417.97;3602946;39;20035;-63
2021/07/18 03:44:39;;;;;;;17.23;10.55;;;;;;;15.99;100.00;102428.97;3605611;39;20044;-62
2021/07/18 03:47:06;;;;;;;15.52;10.32;;;;;;;16.01;100.00;102427.00;3606705;39;20047;-62
2021/07/18 03:49:33;;;;;;;15.00;9.07;;;;;;;15.99;100.00;102418.97;3606439;39;20283;-62
2021/07/18 03:52:00;;;;;;;13.13;8.80;;;;;;;15.96;100.00;102421.97;3607730;39;20047;-62
2021/07/18 03:54:26;;;;;;;14.18;8.68;;;;;;;15.96;100.00;102427.41;3603542;39;20037;-62
2021/07/18 03:56:54;;;;;;;13.25;9.00;;;;;;;15.99;100.00;102429.84;3607691;39;20048;-62
2021/07/18 03:59:21;;;;;;;14.63;8.70;;;;;;;16.01;100.00;102421.56;3605131;39;20042;-62
2021/07/18 04:01:47;;;;;;;14.52;8.95;;;;;;;16.08;100.00;102422.75;3606877;39;20027;-62
2021/07/18 04:04:13;;;;;;;17.08;10.18;;;;;;;16.03;100.00;102420.44;3605831;39;20032;-62
2021/07/18 04:06:40;;;;;;;18.08;10.07;;;;;;;16.05;100.00;102417.59;3606909;39;20033;-62
2021/07/18 04:09:06;;;;;;;15.95;8.98;;;;;;;16.06;100.00;102422.88;3607811;39;20344;-62
2021/07/18 04:11:33;;;;;;;17.30;10.48;;;;;;;16.01;100.00;102427.84;3606604;39;20046;-62
2021/07/18 04:14:01;;;;;;;17.92;10.30;;;;;;;16.07;100.00;102429.16;3607216;39;20093;-62
2021/07/18 04:16:27;;;;;;;16.55;9.32;;;;;;;16.12;100.00;102426.88;3607559;39;20047;-62
2021/07/18 04:18:53;;;;;;;15.98;10.55;;;;;;;16.14;100.00;102429.50;3607809;39;20104;-62
2021/07/18 04:21:21;;;;;;;18.02;10.90;;;;;;;16.13;100.00;102425.06;3607988;39;20028;-62
2021/07/18 04:23:48;;;;;;;19.23;10.75;;;;;;;16.09;100.00;102428.03;3607604;39;20030;-62
2021/07/18 04:26:14;;;;;;;16.75;10.45;;;;;;;15.98;100.00;102425.38;3603812;39;20031;-62
2021/07/18 04:28:41;;;;;;;18.08;10.50;;;;;;;15.98;100.00;102428.09;3606186;39;20034;-62
2021/07/18 04:31:09;;;;;;;21.70;11.18;;;;;;;15.93;100.00;102425.78;3606636;39;20051;-62
2021/07/18 04:36:06;;;;;;;21.25;12.45;;;;;;;16.07;100.00;102424.59;3657506;22;20044;-63
2021/07/18 04:38:32;;;;;;;17.25;11.20;;;;;;;16.10;100.00;102421.59;3604606;39;20048;-63
2021/07/18 04:40:59;;;;;;;23.70;12.60;;;;;;;16.17;100.00;102427.38;3607195;39;20036;-62
2021/07/18 04:43:25;;;;;;;19.65;11.35;;;;;;;16.11;100.00;102417.88;3605810;39;20034;-62
2021/07/18 04:45:51;;;;;;;19.38;11.65;;;;;;;16.12;100.00;102418.75;3608213;39;20033;-62
2021/07/18 04:48:19;;;;;;;20.58;12.10;;;;;;;16.19;100.00;102419.06;3606246;39;20354;-63
2021/07/18 04:50:47;;;;;;;15.30;9.90;;;;;;;16.32;100.00;102417.00;3608782;39;20038;-62
2021/07/18 04:53:13;;;;;;;17.45;10.23;;;;;;;16.40;100.00;102416.31;3607405;39;20140;-62
2021/07/18 04:55:40;;;;;;;20.75;9.32;;;;;;;16.55;100.00;102419.50;3606739;39;20031;-63
2021/07/18 04:58:06;;;;;;;15.20;9.40;;;;;;;16.65;100.00;102412.25;3607058;39;20040;-63
2021/07/18 05:00:32;;;;;;;16.10;9.65;;;;;;;16.68;100.00;102416.56;3605037;39;20032;-62
2021/07/18 05:02:59;;;;;;;16.05;10.05;;;;;;;16.82;100.00;102419.75;3603993;39;20039;-62
2021/07/18 05:05:30;;;;;;;14.93;9.32;;;;;;;16.80;100.00;102416.31;3605422;39;20111;-62
2021/07/18 05:07:59;;;;;;;15.20;9.77;;;;;;;16.87;100.00;102410.31;3608074;39;20089;-62
2021/07/18 05:10:26;;;;;;;15.65;10.68;;;;;;;16.89;100.00;102416.53;3606060;39;20040;-62
2021/07/18 05:12:55;;;;;;;17.23;9.10;;;;;;;16.85;100.00;102418.63;3605290;39;20050;-62
2021/07/18 05:15:22;;;;;;;14.63;9.35;;;;;;;16.96;100.00;102412.22;3609409;39;20039;-62
2021/07/18 05:17:49;;;;;;;13.48;9.50;;;;;;;16.97;100.00;102414.84;3605179;39;20048;-62
2021/07/18 05:20:17;;;;;;;15.63;9.75;;;;;;;17.11;100.00;102419.00;3605260;39;20382;-62
2021/07/18 05:22:45;;;;;;;14.65;9.40;;;;;;;17.22;100.00;102420.72;3609168;39;20063;-62
2021/07/18 05:25:12;;;;;;;14.60;9.77;;;;;;;17.31;100.00;102424.44;3608770;39;20043;-62
2021/07/18 05:27:39;;;;;;;14.55;8.10;;;;;;;17.24;100.00;102420.56;3610003;39;20367;-62
2021/07/18 05:30:07;;;;;;;12.73;8.60;;;;;;;17.37;100.00;102423.88;3607905;39;20034;-62
2021/07/18 05:32:34;;;;;;;15.20;8.77;;;;;;;17.36;100.00;102424.88;3602635;39;20032;-62
2021/07/18 05:35:01;;;;;;;18.90;8.65;;;;;;;17.56;100.00;102416.72;3605020;39;20036;-62
2021/07/18 05:37:27;;;;;;;12.50;8.77;;;;;;;17.54;100.00;102418.72;3606094;39;20052;-62
2021/07/18 05:39:55;;;;;;;13.57;8.65;;;;;;;17.58;100.00;102411.97;3609266;39;20046;-62
2021/07/18 05:42:21;;;;;;;12.45;7.15;;;;;;;17.68;100.00;102408.25;3608433;39;20063;-62
2021/07/18 05:44:48;;;;;;;11.85;8.13;;;;;;;17.68;100.00;102408.25;3602172;39;20256;-62
2021/07/18 05:47:14;;;;;;;14.23;7.60;;;;;;;17.69;100.00;102403.66;3624128;22;20051;-62
2021/07/18 05:49:41;;;;;;;11.43;7.10;;;;;;;17.75;100.00;102411.25;3608919;39;20379;-62
2021/07/18 05:52:08;;;;;;;9.88;6.47;;;;;;;17.77;100.00;102417.44;3607643;39;20471;-61
2021/07/18 05:54:35;;;;;;;11.55;6.70;;;;;;;17.92;100.00;102408.81;3609013;39;20052;-62
2021/07/18 05:57:03;;;;;;;11.15;7.20;;;;;;;17.85;100.00;102414.81;3607560;39;20093;-62
2021/07/18 05:59:29;;;;;;;10.65;6.75;;;;;;;18.04;100.00;102413.94;3607653;39;20040;-62
2021/07/18 06:01:56;;;;;;;12.75;7.30;;;;;;;18.21;100.00;102404.16;3607854;39;20040;-62
2021/07/18 06:04:22;;;;;;;11.32;6.93;;;;;;;18.14;100.00;102403.03;3607606;39;20388;-62
2021/07/18 06:06:49;;;;;;;10.25;7.15;;;;;;;18.22;100.00;102410.44;3607290;39;20031;-62
2021/07/18 06:09:15;;;;;;;13.68;6.72;;;;;;;18.33;100.00;102412.13;3608550;39;20072;-62
2021/07/18 06:11:41;;;;;;;7.82;6.05;;;;;;;18.35;100.00;102404.66;3607146;39;20035;-62
2021/07/18 06:14:09;;;;;;;10.25;6.50;;;;;;;18.36;100.00;102403.69;3606157;39;20034;-62
2021/07/18 06:16:36;;;;;;;10.60;7.15;;;;;;;18.47;100.00;102410.78;3607719;39;20363;-62
2021/07/18 06:19:03;;;;;;;12.55;6.80;;;;;;;18.53;100.00;102405.56;3607774;39;20024;-61
2021/07/18 06:21:29;;;;;;;11.60;6.50;;;;;;;18.64;100.00;102404.53;3608370;39;20045;-62
2021/07/18 06:23:55;;;;;;;10.55;6.47;;;;;;;18.78;100.00;102405.88;3607929;39;20034;-62
2021/07/18 06:26:22;;;;;;;11.82;6.82;;;;;;;18.96;100.00;102408.66;3607758;39;20086;-62
2021/07/18 06:28:48;;;;;;;11.90;7.20;;;;;;;19.15;100.00;102409.56;3604109;39;20379;-62
2021/07/18 06:31:16;;;;;;;10.10;6.68;;;;;;;19.37;100.00;102408.25;3607355;39;20040;-62
2021/07/18 06:33:44;;;;;;;10.93;6.47;;;;;;;19.55;100.00;102409.09;3607414;39;20116;-62
2021/07/18 06:36:11;;;;;;;9.75;5.70;;;;;;;19.58;100.00;102400.59;3607285;39;20050;-62
2021/07/18 06:38:39;;;;;;;11.70;6.72;;;;;;;19.71;100.00;102407.50;3608268;39;20054;-63
2021/07/18 06:41:05;;;;;;;11.02;6.38;;;;;;;19.96;100.00;102408.56;3608251;39;20028;-62
2021/07/18 06:43:32;;;;;;;11.77;6.60;;;;;;;19.90;100.00;102403.75;3606969;39;20042;-62
2021/07/18 06:45:58;;;;;;;8.48;5.78;;;;;;;19.93;100.00;102404.31;3607812;39;20047;-62
2021/07/18 06:48:26;;;;;;;8.95;5.65;;;;;;;19.90;100.00;102401.84;3607159;39;20040;-63
2021/07/18 06:50:53;;;;;;;10.07;6.40;;;;;;;19.81;100.00;102402.81;3607905;39;20367;-62
2021/07/18 06:53:19;;;;;;;10.38;6.22;;;;;;;19.71;100.00;102402.91;3604977;39;20041;-63
2021/07/18 06:55:46;;;;;;;7.43;5.93;;;;;;;19.99;100.00;102416.44;3607642;39;20027;-63
2021/07/18 07:00:42;;;;;;;8.98;6.22;;;;;;;20.35;100.00;102410.00;3628911;22;20043;-62
2021/07/18 07:03:08;;;;;;;9.10;6.05;;;;;;;20.22;100.00;102411.28;3606783;39;20032;-62
2021/07/18 07:05:36;;;;;;;10.48;6.03;;;;;;;20.24;100.00;102412.00;3606935;39;20032;-62
2021/07/18 07:08:03;;;;;;;9.63;7.00;;;;;;;20.35;100.00;102415.47;3606397;39;20032;-62
2021/07/18 07:10:30;;;;;;;10.98;6.18;;;;;;;20.39;100.00;102419.56;3606169;39;20040;-62
2021/07/18 07:12:56;;;;;;;10.15;6.03;;;;;;;20.60;100.00;102403.63;3606627;39;20396;-62
2021/07/18 07:15:23;;;;;;;7.70;5.88;;;;;;;20.88;100.00;102411.63;3608403;39;20030;-62
2021/07/18 07:17:49;;;;;;;10.20;5.40;;;;;;;20.92;100.00;102402.06;3606370;39;20063;-62
2021/07/18 07:20:16;;;;;;;11.32;6.43;;;;;;;20.79;100.00;102404.41;3607326;39;20028;-63
2021/07/18 07:22:44;;;;;;;11.02;6.03;;;;;;;20.76;100.00;102405.59;3607971;39;20113;-63
2021/07/18 07:25:13;;;;;;;9.65;5.60;;;;;;;21.33;100.00;102402.13;3607830;39;20035;-63
2021/07/18 07:27:39;;;;;;;12.40;6.03;;;;;;;21.33;100.00;102404.88;3607500;39;20039;-63
2021/07/18 07:30:08;;;;;;;9.18;5.22;;;;;;;21.57;100.00;102396.84;3607516;39;20040;-64
2021/07/18 07:32:35;;;;;;;;;;;;;;;21.73;100.00;102395.97;3607405;39;20051;-63
2021/07/18 07:35:02;;;;;;;8.75;4.97;;;;;;;22.06;100.00;102399.53;3606833;39;19947;-63
2021/07/18 07:37:28;;;;;;;8.25;4.72;;;;;;;22.18;100.00;102408.22;3606857;39;20043;-63
2021/07/18 07:39:56;;;;;;;6.28;4.25;;;;;;;22.26;100.00;102407.34;3607389;39;20057;-63
2021/07/18 07:42:23;;;;;;;6.65;4.78;;;;;;;22.21;100.00;102405.13;3607087;39;20122;-63
2021/07/18 07:44:52;;;;;;;7.10;4.57;;;;;;;22.18;100.00;102402.75;3607190;39;20040;-63
2021/07/18 07:47:18;;;;;;;9.13;4.85;;;;;;;21.90;100.00;102391.34;3606622;39;20032;-64
2021/07/18 07:49:45;;;;;;;6.15;3.90;;;;;;;22.05;100.00;102398.69;3607023;39;20038;-62
2021/07/18 07:52:13;;;;;;;8.02;3.58;;;;;;;22.48;100.00;102394.78;3606449;39;20038;-62
2021/07/18 07:54:40;;;;;;;6.28;3.35;;;;;;;22.28;100.00;102397.06;3607803;39;20038;-63
2021/07/18 07:57:08;;;;;;;8.55;3.20;;;;;;;22.44;100.00;102398.91;3607371;39;20036;-65
2021/07/18 07:59:35;;;;;;;5.07;2.47;;;;;;;22.38;100.00;102398.59;3604946;39;20271;-64
2021/07/18 08:02:02;;;;;;;3.20;2.40;;;;;;;22.67;100.00;102391.63;3596625;40;20028;-64
2021/07/18 08:04:29;;;;;;;4.68;2.40;;;;;;;22.85;100.00;102393.22;3598193;40;20040;-63
2021/07/18 08:06:56;;;;;;;4.60;2.03;;;;;;;23.12;100.00;102391.06;3596155;40;20048;-64
2021/07/18 08:09:22;;;;;;;3.42;2.20;;;;;;;23.17;100.00;102394.09;3596701;40;20046;-64
2021/07/18 08:11:49;;;;;;;5.50;2.72;;;;;;;23.26;100.00;102385.63;3596920;40;20121;-63
2021/07/18 08:14:17;;;;;;;5.72;2.40;;;;;;;23.47;100.00;102388.69;3596544;40;20040;-63
2021/07/18 08:16:44;;;;;;;4.60;2.13;;;;;;;23.35;100.00;102380.91;3596694;40;20418;-63
2021/07/18 08:19:11;;;;;;;3.45;1.70;;;;;;;22.99;100.00;102389.72;3595555;40;20060;-63
2021/07/18 08:21:38;;;;;;;4.88;2.15;;;;;;;23.39;100.00;102390.47;3597394;40;20459;-63
2021/07/18 08:24:05;;;;;;;5.03;1.95;;;;;;;23.37;100.00;102388.97;3595454;40;20044;-64
2021/07/18 08:26:31;;;;;;;3.50;1.98;;;;;;;23.53;100.00;102386.09;3596863;40;20032;-63
2021/07/18 08:28:58;;;;;;;4.63;1.98;;;;;;;23.52;100.00;102378.03;3597768;40;20035;-63
2021/07/18 08:31:26;;;;;;;3.70;1.90;;;;;;;23.59;100.00;102388.09;3596550;40;20050;-63
2021/07/18 08:33:53;;;;;;;4.40;2.00;;;;;;;24.00;100.00;102389.63;3596683;40;20030;-63
2021/07/18 08:36:19;;;;;;;3.58;1.83;;;;;;;23.73;100.00;102391.06;3596043;40;20141;-63
2021/07/18 08:38:46;;;;;;;3.97;2.40;;;;;;;23.77;100.00;102393.22;3595983;40;20048;-63
2021/07/18 08:41:13;;;;;;;3.33;1.63;;;;;;;23.80;100.00;102397.50;3595469;40;20040;-64
2021/07/18 08:43:40;;;;;;;6.10;2.15;;;;;;;24.01;100.00;102394.06;3595143;40;20252;-64
2021/07/18 08:46:07;;;;;;;3.00;2.00;;;;;;;23.87;100.00;102387.50;3594085;40;20397;-63
2021/07/18 08:48:35;;;;;;;4.38;2.22;;;;;;;24.02;100.00;102386.69;3596769;40;20054;-63
2021/07/18 08:51:02;;;;;;;2.75;1.67;;;;;;;24.06;100.00;102380.59;3597049;40;20038;-64
2021/07/18 08:53:29;;;;;;;4.88;2.33;;;;;;;24.46;100.00;102383.91;3597441;40;20043;-63
2021/07/18 08:55:56;;;;;;;4.20;2.20;;;;;;;24.60;100.00;102378.59;3597110;40;20035;-64
2021/07/18 08:58:22;;;;;;;4.40;2.05;;;;;;;24.52;100.00;102367.69;3595546;40;20068;-64
2021/07/18 09:00:49;;;;;;;3.17;2.15;;;;;;;24.63;100.00;102375.47;3603136;39;20045;-63
2021/07/18 09:03:16;;;;;;;2.90;1.98;;;;;;;24.80;100.00;102362.31;3605758;39;20036;-63
2021/07/18 09:05:45;;;;;;;6.05;2.28;;;;;;;25.01;100.00;102356.84;3607418;39;20309;-64
2021/07/18 09:08:18;;;;;;;3.08;1.98;;;;;;;24.83;100.00;102362.78;3606177;39;20382;-64
2021/07/18 09:10:47;;;;;;;2.92;1.90;;;;;;;24.93;100.00;102358.88;3600640;39;20391;-63
2021/07/18 09:13:14;;;;;;;3.42;1.98;;;;;;;24.99;100.00;102363.59;3607056;39;20032;-64
2021/07/18 09:15:43;;;;;;;3.50;1.77;;;;;;;24.81;100.00;102351.13;3606827;39;20032;-64
2021/07/18 09:18:17;;;;;;;3.95;2.00;;;;;;;24.82;100.00;102355.59;3605077;39;20054;-64
2021/07/18 09:20:46;;;;;;;3.40;1.85;;;;;;;24.91;100.00;102366.47;3605977;39;20036;-64
2021/07/18 09:23:16;;;;;;;3.47;1.95;;;;;;;24.86;100.00;102363.47;3606958;39;20035;-64
2021/07/18 09:25:44;;;;;;;3.50;1.98;;;;;;;24.86;100.00;102363.47;3605947;39;20071;-64
2021/07/18 09:28:15;;;;;;;3.00;2.00;;;;;;;25.45;100.00;102362.38;3604594;39;20040;-65
2021/07/18 09:30:42;;;;;;;3.38;1.80;;;;;;;25.24;100.00;102365.97;3606747;39;20294;-63
2021/07/18 09:33:21;;;;;;;4.40;2.33;;;;;;;24.93;100.00;102358.88;3604743;39;20402;-63
2021/07/18 09:35:49;;;;;;;2.70;1.90;;;;;;;25.28;100.00;102359.84;3607205;39;20101;-63
2021/07/18 09:38:24;;;;;;;3.63;1.83;;;;;;;25.31;100.00;102356.75;3606195;39;20024;-64
2021/07/18 09:40:58;;;;;;;2.28;1.65;;;;;;;25.33;100.00;102356.53;3605605;39;20047;-63
2021/07/18 09:43:27;;;;;;;3.75;1.92;;;;;;;25.48;100.00;102362.81;3607005;39;20032;-63
2021/07/18 09:45:57;;;;;;;2.45;1.70;;;;;;;25.61;100.00;102362.06;3605831;39;20058;-63
2021/07/18 09:48:36;;;;;;;3.47;1.63;;;;;;;25.46;100.00;102359.41;3605169;39;20060;-64
2021/07/18 09:51:10;;;;;;;2.55;1.80;;;;;;;25.88;100.00;102356.75;3606029;39;20386;-63
2021/07/18 09:53:37;;;;;;;4.22;2.28;;;;;;;26.23;100.00;102365.88;3606033;39;20028;-62
2021/07/18 09:56:07;;;;;;;4.80;1.95;;;;;;;26.17;100.00;102361.19;3606228;39;20040;-63
2021/07/18 09:58:35;;;;;;;3.13;2.08;;;;;;;26.30;100.00;102356.81;3606508;39;20032;-63
2021/07/18 10:01:04;;;;;;;3.88;2.08;;;;;;;26.27;100.00;102355.31;3607487;39;20046;-63
2021/07/18 10:03:30;;;;;;;5.35;2.38;;;;;;;26.34;100.00;102358.09;3605630;39;20035;-64
2021/07/18 10:06:09;;;;;;;3.08;1.92;;;;;;;26.15;100.00;102359.72;3607180;39;20039;-62
2021/07/18 10:08:38;;;;;;;3.25;1.95;;;;;;;26.34;100.00;102361.72;3606014;39;20389;-63
2021/07/18 10:11:05;;;;;;;3.17;1.77;;;;;;;26.38;100.00;102359.38;3607486;39;20036;-63
2021/07/18 10:13:32;;;;;;;3.00;2.10;;;;;;;26.45;100.00;102363.03;3608470;39;20024;-63
2021/07/18 10:16:00;;;;;;;2.50;2.00;;;;;;;26.59;100.00;102358.44;3608641;39;20044;-63
2021/07/18 10:18:27;;;;;;;4.32;2.17;;;;;;;26.55;100.00;102352.44;3607669;39;20165;-63
2021/07/18 10:20:54;;;;;;;2.45;1.98;;;;;;;27.02;100.00;102343.47;3606933;39;20390;-62
2021/07/18 10:23:23;;;;;;;2.72;1.85;;;;;;;27.07;100.00;102350.06;3606705;39;20397;-62
2021/07/18 10:25:52;;;;;;;2.65;1.67;;;;;;;26.98;100.00;102354.09;3606902;39;20023;-62
2021/07/18 10:28:19;;;;;;;4.88;2.30;;;;;;;26.64;100.00;102352.28;3607411;39;20390;-63
2021/07/18 10:30:49;;;;;;;5.47;2.13;;;;;;;26.88;100.00;102357.28;3607888;39;20092;-63
2021/07/18 10:33:19;;;;;;;5.50;2.33;;;;;;;26.70;100.00;102349.56;3607719;39;20034;-64
2021/07/18 10:35:46;;;;;;;4.38;2.20;;;;;;;26.73;100.00;102342.78;3607424;39;20357;-63
2021/07/18 10:38:18;;;;;;;5.50;2.33;;;;;;;26.76;100.00;102336.81;3607281;39;20386;-63
2021/07/18 10:40:51;;;;;;;4.80;2.15;;;;;;;27.09;100.00;102324.97;3607379;39;20038;-63
2021/07/18 10:43:38;;;;;;;4.75;1.90;;;;;;;27.16;100.00;102330.53;3607977;39;20067;-63
2021/07/18 10:46:07;;;;;;;3.25;2.47;;;;;;;27.42;100.00;102336.09;3605381;39;20379;-64
2021/07/18 10:48:45;;;;;;;3.35;2.20;;;;;;;27.35;100.00;102339.91;3607845;39;20035;-62
2021/07/18 10:51:13;;;;;;;2.55;1.98;;;;;;;27.02;100.00;102337.97;3608154;39;20042;-63
2021/07/18 10:53:40;;;;;;;5.32;2.33;;;;;;;26.56;100.00;102337.59;3607388;39;20032;-63
2021/07/18 10:56:08;;;;;;;3.60;2.10;;;;;;;26.50;100.00;102338.44;3607730;39;20055;-64
2021/07/18 10:58:55;;;;;;;4.20;1.80;;;;;;;27.08;100.00;102331.59;3608190;39;20032;-63
2021/07/18 11:01:38;;;;;;;2.95;2.10;;;;;;;27.24;100.00;102333.94;3598982;39;20078;-64
2021/07/18 11:04:07;;;;;;;3.83;2.05;;;;;;;27.20;100.00;102320.75;3595983;40;20068;-62
2021/07/18 11:06:36;;;;;;;2.20;1.80;;;;;;;27.82;100.00;102334.34;3595978;40;20032;-62
2021/07/18 11:09:12;;;;;;;2.78;2.40;;;;;;;27.49;100.00;102330.56;3597214;40;20117;-63
2021/07/18 11:11:41;;;;;;;2.95;2.10;;;;;;;27.60;100.00;102324.34;3597584;40;20031;-63
2021/07/18 11:14:28;;;;;;;3.75;2.15;;;;;;;27.82;100.00;102326.88;3596916;40;20036;-62
2021/07/18 11:16:57;;;;;;;3.63;2.13;;;;;;;27.52;100.00;102324.59;3597686;40;20027;-63
2021/07/18 11:19:54;;;;;;;3.55;2.13;;;;;;;27.61;100.00;102328.84;3598336;40;20036;-62
2021/07/18 11:22:57;;;;;;;5.30;2.30;;;;;;;27.50;100.00;102314.81;3594356;39;20034;-62
2021/07/18 11:25:49;;;;;;;2.95;2.33;;;;;;;27.83;100.00;102324.97;3596811;40;20028;-62
2021/07/18 11:28:49;;;;;;;3.45;2.53;;;;;;;27.81;100.00;102316.88;3595388;40;20048;-64
2021/07/18 11:31:43;;;;;;;2.72;1.92;;;;;;;27.92;100.00;102315.38;3597915;40;20036;-63